Time;durP1;ratioP1;P1;durP2;ratioP2;P2;SDS_P1;SDS_P2;PMS_P1;PMS_P2;Temp;Humidity;BMP_temperature;BMP_pressure;BME280_temperature;BME280_humidity;BME280_pressure;Samples;Min_cycle;Max_cycle;Signal;HPM_P1;HPM_P2
2021/07/14 00:04:43;;;;;;;;;;;;;;;21.82;70.02;99226.25;255545;1104;115074;-69
2021/07/14 00:09:49;;;;;;;19.53;17.70;;;;;;;21.77;70.14;99227.20;257212;1103;103001;-69
2021/07/14 00:15:05;;;;;;;20.38;18.23;;;;;;;21.78;70.36;99226.09;255158;1104;115403;-69
2021/07/14 00:25:36;;;;;;;20.63;18.73;;;;;;;21.76;70.37;99220.18;257251;1101;116074;-69
2021/07/14 00:30:48;;;;;;;18.50;16.80;;;;;;;21.75;70.30;99221.30;256814;1102;116954;-69
2021/07/14 00:35:55;;;;;;;20.80;15.63;;;;;;;21.73;70.10;99218.11;255657;1102;116009;-69
2021/07/14 00:41:00;;;;;;;18.68;16.80;;;;;;;21.70;70.15;99231.55;256106;1102;115958;-70
2021/07/14 00:46:21;;;;;;;18.00;15.58;;;;;;;21.67;70.27;99218.62;255505;1096;116635;-69
2021/07/14 00:51:30;;;;;;;19.27;17.37;;;;;;;21.55;70.11;99221.96;254927;1104;115615;-69
2021/07/14 00:56:34;;;;;;;21.53;17.75;;;;;;;21.52;70.39;99225.31;255593;1101;115570;-69
2021/07/14 01:01:38;;;;;;;19.13;17.20;;;;;;;21.49;70.64;99223.23;255752;1101;115302;-69
2021/07/14 01:06:51;;;;;;;16.98;15.38;;;;;;;21.47;70.27;99237.11;255110;1101;115786;-69
2021/07/14 01:12:03;;;;;;;15.55;14.10;;;;;;;21.45;70.55;99239.34;255122;1101;115638;-67
2021/07/14 01:17:11;;;;;;;19.23;17.50;;;;;;;21.31;70.53;99237.91;255397;1102;116353;-69
2021/07/14 01:22:53;;;;;;;18.83;16.88;;;;;;;21.23;70.56;99228.64;254509;1104;117365;-69
2021/07/14 01:28:01;;;;;;;18.85;16.95;;;;;;;21.24;70.87;99224.02;254862;1101;118688;-69
2021/07/14 01:33:09;;;;;;;18.25;16.35;;;;;;;21.24;70.65;99221.31;254546;1104;116229;-68
2021/07/14 01:38:18;;;;;;;18.80;16.10;;;;;;;21.16;70.81;99226.37;254617;1101;115633;-69
2021/07/14 01:43:25;;;;;;;17.35;15.63;;;;;;;21.12;71.09;99217.27;254695;1101;115601;-69
2021/07/14 01:48:34;;;;;;;17.40;15.68;;;;;;;21.07;71.21;99213.94;255935;1102;118630;-69
2021/07/14 01:53:40;;;;;;;17.38;15.50;;;;;;;20.92;71.10;99209.75;256014;1102;115668;-69
2021/07/14 01:58:48;;;;;;;17.40;15.90;;;;;;;20.83;71.21;99208.92;255449;1103;114773;-69
2021/07/14 02:04:29;;;;;;;16.43;14.73;;;;;;;20.85;71.67;99203.98;254303;1102;115553;-68
2021/07/14 02:09:19;;;;;;;18.40;16.70;;;;;;;20.88;71.81;99211.48;255631;1104;116165;-69
2021/07/14 02:14:30;;;;;;;18.35;16.75;;;;;;;20.92;71.86;99215.17;254368;1104;115603;-69
2021/07/14 02:19:41;;;;;;;21.00;14.88;;;;;;;20.81;71.46;99203.81;256337;1103;115169;-69
2021/07/14 02:24:47;;;;;;;18.57;16.87;;;;;;;20.72;71.75;99210.34;255956;1102;116157;-68
2021/07/14 02:29:52;;;;;;;18.28;16.50;;;;;;;20.70;71.69;99204.44;256255;1103;115986;-68
2021/07/14 02:34:57;;;;;;;16.93;15.10;;;;;;;20.73;71.88;99218.16;257194;1103;115926;-69
2021/07/14 02:40:03;;;;;;;;;;;;;;;20.81;72.06;99205.73;256538;1103;118437;-68
2021/07/14 02:45:09;;;;;;;22.60;18.45;;;;;;;20.80;72.05;99202.22;256753;1103;103081;-69
2021/07/14 02:50:18;;;;;;;19.50;17.68;;;;;;;20.88;72.37;99216.91;254440;1103;116453;-69
2021/07/14 02:55:31;;;;;;;19.30;16.00;;;;;;;20.90;72.26;99214.69;254591;1096;114966;-69
2021/07/14 03:00:39;;;;;;;17.55;15.70;;;;;;;20.95;72.35;99214.55;254981;1103;115857;-69
2021/07/14 03:05:47;;;;;;;18.35;16.50;;;;;;;21.00;71.98;99211.69;256066;1104;115724;-69
2021/07/14 03:10:56;;;;;;;17.58;15.80;;;;;;;21.03;71.98;99205.64;255407;1103;115265;-69
2021/07/14 03:16:03;;;;;;;17.00;14.90;;;;;;;20.99;71.97;99210.09;254512;1103;114943;-68
2021/07/14 03:21:09;;;;;;;;;;;;;;;20.90;71.92;99211.97;254241;1102;115753;-69
2021/07/14 03:26:17;;;;;;;18.13;16.40;;;;;;;20.79;72.11;99221.52;255484;1102;103556;-70
2021/07/14 03:31:23;;;;;;;16.58;15.10;;;;;;;20.87;72.43;99217.22;254753;1103;116456;-69
2021/07/14 03:36:29;;;;;;;18.68;16.88;;;;;;;20.95;72.20;99209.13;254611;1104;117925;-68
2021/07/14 03:41:35;;;;;;;18.00;16.13;;;;;;;20.99;72.64;99215.51;254684;1102;115230;-68
2021/07/14 03:46:40;;;;;;;20.55;17.53;;;;;;;21.13;72.64;99205.31;255070;1103;115579;-68
2021/07/14 03:51:48;;;;;;;17.23;15.53;;;;;;;21.24;72.75;99197.71;255172;1103;115508;-68
2021/07/14 03:56:54;;;;;;;22.05;17.68;;;;;;;21.44;72.79;99188.13;255506;1097;116023;-67
2021/07/14 04:02:02;;;;;;;19.10;17.23;;;;;;;21.71;72.63;99200.55;256292;1104;115990;-68
2021/07/14 04:07:13;;;;;;;;;;;;;;;21.93;72.68;99213.16;255105;1102;116320;-67
2021/07/14 04:12:19;;;;;;;18.83;17.03;;;;;;;22.22;72.83;99204.33;257474;1103;103154;-68
2021/07/14 04:17:25;;;;;;;18.48;16.78;;;;;;;22.53;72.42;99204.05;256282;1103;115303;-68
2021/07/14 04:22:30;;;;;;;18.30;16.47;;;;;;;22.78;72.10;99214.02;257421;1102;115657;-68
2021/07/14 04:27:35;;;;;;;19.43;17.40;;;;;;;23.05;71.85;99208.09;257334;1102;115050;-68
2021/07/14 04:32:40;;;;;;;18.78;16.93;;;;;;;23.53;71.74;99200.58;257155;1104;115775;-67
2021/07/14 04:37:49;;;;;;;21.30;17.17;;;;;;;23.94;71.42;99202.41;257341;1102;115657;-68
2021/07/14 04:42:55;;;;;;;28.45;18.88;;;;;;;24.56;71.02;99207.66;255068;1097;115597;-67
2021/07/14 04:48:02;;;;;;;24.18;19.45;;;;;;;25.01;70.37;99210.29;255110;1102;115201;-69
2021/07/14 04:53:08;;;;;;;23.40;21.13;;;;;;;25.39;69.35;99209.05;254201;1103;114944;-68
2021/07/14 04:58:12;;;;;;;20.18;18.25;;;;;;;25.81;68.90;99210.29;254194;1102;115869;-68
2021/07/14 05:03:17;;;;;;;23.50;21.20;;;;;;;26.11;68.26;99215.36;253717;1103;115522;-69
2021/07/14 05:08:23;;;;;;;21.33;19.43;;;;;;;26.55;67.62;99205.20;253860;1102;115807;-69
2021/07/14 05:13:28;;;;;;;23.28;21.20;;;;;;;27.41;66.40;99208.73;253729;1104;115725;-67
2021/07/14 05:18:33;;;;;;;25.08;22.70;;;;;;;28.40;65.37;99203.59;255001;1102;116790;-68
2021/07/14 05:23:37;;;;;;;22.60;20.80;;;;;;;29.33;63.84;99214.02;253718;1104;115566;-68
2021/07/14 05:28:42;;;;;;;;;;;;;;;30.29;62.15;99217.86;254994;1103;115642;-70
2021/07/14 05:33:47;;;;;;;23.23;20.83;;;;;;;31.20;59.97;99216.22;254630;1103;103023;-69
2021/07/14 05:39:00;;;;;;;21.03;18.90;;;;;;;32.04;58.42;99221.30;254554;1101;115891;-70
2021/07/14 05:44:06;;;;;;;16.28;14.78;;;;;;;32.78;56.72;99219.80;253660;1101;115580;-71
2021/07/14 05:49:12;;;;;;;16.78;14.58;;;;;;;33.37;54.75;99209.02;253814;1102;115377;-71
2021/07/14 05:54:16;;;;;;;14.10;12.93;;;;;;;34.13;53.68;99213.80;253720;1101;115508;-70
2021/07/14 05:59:22;;;;;;;14.70;11.47;;;;;;;34.85;51.55;99222.37;253813;1103;116306;-69
2021/07/14 06:04:27;;;;;;;11.58;10.58;;;;;;;35.19;50.40;99212.08;254820;1101;115800;-71
2021/07/14 06:09:33;;;;;;;13.90;11.63;;;;;;;35.10;49.07;99218.14;253656;1104;116343;-70
2021/07/14 06:14:39;;;;;;;13.25;11.95;;;;;;;35.19;48.49;99220.39;255591;1101;117342;-70
2021/07/14 06:19:46;;;;;;;17.30;11.10;;;;;;;35.72;47.29;99233.66;254704;1102;116599;-70
2021/07/14 06:24:52;;;;;;;16.23;11.28;;;;;;;36.21;46.40;99236.16;254146;1101;116990;-70
2021/07/14 06:30:17;;;;;;;13.10;10.15;;;;;;;36.22;46.25;99226.63;255184;1102;116869;-69
2021/07/14 06:35:23;;;;;;;16.15;10.78;;;;;;;36.17;45.86;99224.32;253966;1101;117500;-69
2021/07/14 06:40:28;;;;;;;17.90;12.23;;;;;;;35.95;45.00;99216.33;257481;1101;115386;-70
2021/07/14 06:45:33;;;;;;;13.00;10.97;;;;;;;36.02;45.07;99230.09;257325;1101;116848;-71
2021/07/14 06:50:38;;;;;;;17.90;10.20;;;;;;;36.16;44.70;99229.08;257094;1097;116367;-69
2021/07/14 06:55:43;;;;;;;12.40;11.35;;;;;;;36.66;43.95;99228.33;253876;1102;117266;-69
2021/07/14 07:00:49;;;;;;;12.30;11.13;;;;;;;36.76;44.75;99235.70;253991;1102;117368;-70
2021/07/14 07:05:54;;;;;;;12.48;11.30;;;;;;;36.93;44.12;99237.39;253891;1104;116714;-70
2021/07/14 07:11:01;;;;;;;10.95;10.00;;;;;;;36.68;43.40;99243.36;254303;1101;117516;-70
2021/07/14 07:16:07;;;;;;;15.20;12.10;;;;;;;36.66;43.17;99250.55;254801;1102;117305;-69
2021/07/14 07:21:12;;;;;;;10.90;9.68;;;;;;;37.10;43.54;99247.38;253834;1101;116414;-70
2021/07/14 07:26:17;;;;;;;12.13;10.75;;;;;;;37.32;43.51;99244.99;253896;1101;115486;-70
2021/07/14 07:31:44;;;;;;;11.33;10.13;;;;;;;37.63;43.29;99251.12;253794;1103;115699;-70
2021/07/14 07:36:50;;;;;;;11.88;10.85;;;;;;;37.35;42.52;99248.91;255150;1101;115200;-70
2021/07/14 07:41:57;;;;;;;19.63;11.55;;;;;;;37.36;43.36;99256.05;254719;1102;117065;-70
2021/07/14 07:47:03;;;;;;;11.55;10.45;;;;;;;37.50;43.06;99244.66;253969;1102;116641;-70
2021/07/14 07:52:07;;;;;;;11.38;10.38;;;;;;;37.49;42.85;99251.42;255364;1102;116985;-71
2021/07/14 07:57:12;;;;;;;12.45;11.03;;;;;;;37.31;43.11;99262.09;253909;1101;116375;-70
2021/07/14 08:02:19;;;;;;;13.25;10.80;;;;;;;37.01;43.12;99266.59;254031;1103;116686;-70
2021/07/14 08:07:26;;;;;;;12.98;11.85;;;;;;;37.16;43.46;99260.78;255036;1102;117674;-71
2021/07/14 08:12:32;;;;;;;13.70;12.35;;;;;;;37.21;42.58;99274.22;253715;1104;116158;-70
2021/07/14 08:17:38;;;;;;;15.48;13.83;;;;;;;37.15;42.29;99264.77;253968;1104;116723;-69
2021/07/14 08:22:44;;;;;;;12.97;11.73;;;;;;;36.98;42.38;99266.69;254117;1104;116757;-69
2021/07/14 08:27:50;;;;;;;11.98;10.98;;;;;;;36.75;42.52;99261.90;253983;1104;116287;-71
2021/07/14 08:32:55;;;;;;;14.88;13.10;;;;;;;36.82;43.72;99263.78;256801;1103;117106;-70
2021/07/14 08:38:01;;;;;;;12.50;11.33;;;;;;;37.12;43.79;99271.17;257319;1104;117209;-70
2021/07/14 08:43:09;;;;;;;12.30;11.10;;;;;;;36.94;42.04;99266.74;257330;1103;118497;-71
2021/07/14 08:48:15;;;;;;;22.93;11.60;;;;;;;37.00;42.75;99256.69;256149;1102;116625;-70
2021/07/14 08:53:22;;;;;;;12.63;11.13;;;;;;;37.13;43.48;99254.08;255393;1104;116640;-71
2021/07/14 08:58:29;;;;;;;14.08;12.88;;;;;;;37.24;43.24;99262.26;254143;1097;115092;-70
2021/07/14 09:03:34;;;;;;;15.73;13.13;;;;;;;37.42;42.74;99259.91;254751;1103;116684;-71
2021/07/14 09:08:40;;;;;;;12.05;10.90;;;;;;;37.28;41.80;99265.76;255359;1102;116094;-70
2021/07/14 09:13:47;;;;;;;11.48;10.13;;;;;;;37.03;42.14;99272.52;253776;1104;115227;-69
2021/07/14 09:19:07;;;;;;;16.50;12.58;;;;;;;36.72;42.36;99282.16;254595;1104;114904;-70
2021/07/14 09:24:35;;;;;;;13.85;12.33;;;;;;;36.41;41.59;99293.35;253880;1104;115195;-70
2021/07/14 09:29:41;;;;;;;13.63;12.43;;;;;;;36.46;42.15;99289.32;253818;1096;115334;-71
2021/07/14 09:34:45;;;;;;;15.15;11.33;;;;;;;36.28;40.95;99292.38;254397;1097;117601;-70
2021/07/14 09:39:51;;;;;;;14.23;11.53;;;;;;;36.44;42.36;99289.73;253739;1104;114859;-70
2021/07/14 09:44:56;;;;;;;12.58;11.28;;;;;;;36.64;42.13;99280.72;253855;1104;114668;-70
2021/07/14 09:50:00;;;;;;;11.40;10.47;;;;;;;37.00;41.58;99281.69;254229;1096;114977;-70
2021/07/14 09:55:07;;;;;;;11.23;10.20;;;;;;;37.07;40.48;99284.34;253849;1104;115790;-70
2021/07/14 10:00:21;;;;;;;16.57;10.63;;;;;;;37.09;39.43;99279.16;255010;1104;116408;-70
2021/07/14 10:05:27;;;;;;;10.88;9.60;;;;;;;36.93;40.18;99284.62;255440;1101;115255;-70
2021/07/14 10:10:32;;;;;;;12.73;9.50;;;;;;;36.88;39.69;99293.43;256294;1103;115066;-71
2021/07/14 10:15:40;;;;;;;13.33;10.27;;;;;;;36.99;39.43;99296.82;253894;1101;117359;-70
2021/07/14 10:20:45;;;;;;;11.80;9.13;;;;;;;37.05;38.74;99308.20;253980;1102;117278;-70
2021/07/14 10:25:51;;;;;;;11.33;10.30;;;;;;;37.01;38.94;99305.48;257116;1101;117207;-71
2021/07/14 10:30:59;;;;;;;13.50;11.17;;;;;;;36.99;38.72;99302.38;257135;1101;117584;-70
2021/07/14 10:36:07;;;;;;;12.37;11.13;;;;;;;37.08;39.64;99297.03;257345;1101;115614;-70
2021/07/14 10:41:13;;;;;;;12.33;11.23;;;;;;;36.99;40.04;99298.81;257350;1101;116821;-71
2021/07/14 10:46:24;;;;;;;17.88;10.45;;;;;;;37.13;39.36;99315.22;257462;1101;117779;-71
2021/07/14 10:51:32;;;;;;;12.88;11.55;;;;;;;36.79;38.28;99320.17;257289;1102;115527;-71
2021/07/14 10:56:59;;;;;;;12.98;11.88;;;;;;;36.84;38.32;99320.48;257342;1103;115527;-71
2021/07/14 11:02:05;;;;;;;13.15;11.85;;;;;;;36.93;38.72;99337.41;254756;1097;114950;-71
2021/07/14 11:07:10;;;;;;;12.85;11.70;;;;;;;36.66;38.10;99331.86;253731;1103;116466;-70
2021/07/14 11:12:31;;;;;;;18.85;12.30;;;;;;;36.19;37.82;99342.02;257124;1102;114965;-71
2021/07/14 11:17:36;;;;;;;13.65;12.33;;;;;;;35.49;39.34;99358.27;255258;1102;115777;-70
2021/07/14 11:22:45;;;;;;;18.27;13.73;;;;;;;34.78;39.78;99359.64;255290;1101;115433;-70
2021/07/14 11:27:55;;;;;;;13.43;12.33;;;;;;;34.13;40.63;99363.16;254088;1097;115006;-69
2021/07/14 12:14:37;;;;;;;20.93;18.33;;;;;;;31.26;48.82;99430.27;258990;1093;104814;-70
2021/07/14 12:19:45;;;;;;;20.55;18.65;;;;;;;31.26;49.49;99405.48;253909;1099;116482;-70
2021/07/14 12:24:53;;;;;;;27.07;19.30;;;;;;;31.53;49.22;99369.46;254870;1103;114870;-70
2021/07/14 12:30:05;;;;;;;18.68;16.70;;;;;;;31.94;49.16;99370.13;253773;1104;115214;-71
2021/07/14 12:35:17;;;;;;;23.38;17.55;;;;;;;32.26;48.68;99386.83;253626;1104;114922;-71
2021/07/14 12:40:41;;;;;;;17.85;16.28;;;;;;;32.57;48.54;99390.87;253643;1104;114988;-71
2021/07/14 12:45:46;;;;;;;20.63;15.60;;;;;;;32.88;47.89;99394.89;253888;1104;114373;-71
2021/07/14 12:50:53;;;;;;;15.13;13.78;;;;;;;33.03;47.47;99386.22;253686;1104;115348;-71
2021/07/14 12:55:59;;;;;;;16.15;14.65;;;;;;;33.02;47.38;99386.64;254592;1098;115271;-71
2021/07/14 13:01:03;;;;;;;15.50;14.10;;;;;;;32.98;47.32;99386.63;253716;1104;115066;-71
2021/07/14 13:06:08;;;;;;;18.53;15.53;;;;;;;32.94;46.69;99385.84;255319;1099;115859;-70
2021/07/14 13:11:13;;;;;;;16.35;14.83;;;;;;;33.03;46.84;99364.13;253696;1104;115706;-70
2021/07/14 13:16:25;;;;;;;17.05;15.38;;;;;;;33.02;46.45;99351.50;253836;1104;115880;-70
2021/07/14 13:21:33;;;;;;;17.10;13.80;;;;;;;32.79;46.47;99349.13;254984;1104;115172;-70
2021/07/14 13:26:37;;;;;;;15.45;13.88;;;;;;;32.72;46.84;99340.80;257347;1104;115275;-70
2021/07/14 13:31:40;;;;;;;17.08;14.20;;;;;;;32.62;46.47;99340.81;256545;1104;115526;-70
2021/07/14 13:36:49;;;;;;;16.58;13.43;;;;;;;32.68;46.85;99348.32;253636;1104;115496;-70
2021/07/14 13:41:52;;;;;;;17.67;13.57;;;;;;;32.82;47.15;99357.81;256388;1104;114828;-71
2021/07/14 13:47:01;;;;;;;15.43;13.27;;;;;;;32.87;46.16;99379.51;253665;1098;116078;-72
2021/07/14 13:52:04;;;;;;;16.60;13.58;;;;;;;32.91;46.29;99372.02;253718;1104;115562;-71
2021/07/14 13:57:08;;;;;;;15.05;13.38;;;;;;;32.96;46.31;99363.36;253870;1104;115635;-72
2021/07/14 14:02:32;;;;;;;23.33;13.77;;;;;;;32.95;46.36;99361.77;254566;1104;116177;-71
2021/07/14 14:07:38;;;;;;;13.98;12.53;;;;;;;33.01;46.53;99358.23;253652;1104;116997;-71
2021/07/14 14:12:44;;;;;;;24.15;16.00;;;;;;;32.76;45.89;99362.92;255854;1104;116646;-72
2021/07/14 14:17:50;;;;;;;14.63;13.18;;;;;;;32.58;46.14;99356.58;254880;1104;116858;-70
2021/07/14 14:22:54;;;;;;;24.83;13.95;;;;;;;32.50;46.35;99353.00;253419;1104;116144;-70
2021/07/14 14:28:01;;;;;;;14.88;13.38;;;;;;;32.37;46.70;99346.29;253539;1104;116164;-70
2021/07/14 14:33:07;;;;;;;17.93;13.98;;;;;;;32.26;46.46;99343.49;253576;1104;116213;-70
2021/07/14 14:38:15;;;;;;;21.75;14.18;;;;;;;32.15;46.99;99340.66;253849;1104;116115;-70
2021/07/14 14:43:20;;;;;;;15.50;13.70;;;;;;;32.17;46.20;99323.73;255290;1104;117235;-71
2021/07/14 14:48:23;;;;;;;15.45;13.98;;;;;;;32.12;46.46;99326.86;253877;1100;115899;-69
2021/07/14 14:53:26;;;;;;;21.00;13.75;;;;;;;31.95;46.61;99317.36;253796;1099;116138;-69
2021/07/14 14:58:31;;;;;;;19.53;14.88;;;;;;;31.94;46.34;99310.27;257101;1104;115749;-71
2021/07/14 15:03:35;;;;;;;15.40;13.63;;;;;;;32.00;47.11;99313.45;255511;1104;116675;-69
2021/07/14 15:08:39;;;;;;;18.58;15.30;;;;;;;31.99;46.71;99311.86;253623;1104;116798;-70
2021/07/14 15:13:43;;;;;;;16.40;14.87;;;;;;;31.94;46.46;99312.23;255690;1104;136864;-71
2021/07/14 15:18:52;;;;;;;16.83;13.90;;;;;;;31.89;47.15;99312.60;253748;1104;116248;-73
2021/07/14 15:23:57;;;;;;;24.17;15.03;;;;;;;31.85;46.66;99306.28;255027;1104;116997;-70
2021/07/14 15:29:00;;;;;;;16.40;14.68;;;;;;;31.81;47.39;99300.75;255145;1100;115406;-71
2021/07/14 15:34:04;;;;;;;15.73;14.15;;;;;;;31.72;47.63;99287.35;253767;1104;116217;-71
2021/07/14 15:39:08;;;;;;;15.33;13.90;;;;;;;31.52;47.13;99283.27;253849;1098;116268;-71
2021/07/14 15:44:14;;;;;;;17.57;14.73;;;;;;;31.43;47.31;99280.89;254933;1104;115975;-71
2021/07/14 15:49:18;;;;;;;16.25;14.40;;;;;;;31.33;47.47;99280.81;253967;1100;117398;-70
2021/07/14 15:54:21;;;;;;;18.00;13.85;;;;;;;31.23;47.14;99273.27;255072;1104;116182;-70
2021/07/14 15:59:24;;;;;;;18.00;13.30;;;;;;;31.13;47.53;99270.09;253480;1104;117729;-70
2021/07/14 16:04:27;;;;;;;17.10;15.28;;;;;;;31.08;48.66;99264.91;253869;1104;116335;-68
2021/07/14 16:09:31;;;;;;;17.63;15.75;;;;;;;31.00;48.33;99263.27;254809;1104;116443;-68
2021/07/14 16:14:35;;;;;;;;;;;;;;;30.94;48.52;99273.05;254548;1104;116745;-68
2021/07/14 16:19:42;;;;;;;16.70;14.73;;;;;;;30.80;47.93;99278.47;255831;1103;103178;-68
2021/07/14 16:24:45;;;;;;;14.63;13.35;;;;;;;30.66;48.28;99292.88;257384;1104;116963;-68
2021/07/14 16:29:48;;;;;;;21.35;15.60;;;;;;;30.51;48.53;99306.87;256084;1104;116399;-67
2021/07/14 16:34:52;;;;;;;22.38;15.45;;;;;;;30.39;49.33;99294.97;253566;1104;116561;-69
2021/07/14 16:39:55;;;;;;;19.75;15.55;;;;;;;30.31;49.08;99276.80;253755;1104;116125;-69
2021/07/14 16:44:58;;;;;;;27.97;17.10;;;;;;;30.38;49.35;99284.34;257292;1104;115661;-68
2021/07/14 16:50:04;;;;;;;18.00;16.33;;;;;;;30.48;49.48;99292.70;256632;1104;116242;-68
2021/07/14 16:55:09;;;;;;;19.75;16.00;;;;;;;30.48;49.70;99300.95;253745;1098;116969;-69
2021/07/14 17:00:14;;;;;;;19.73;15.83;;;;;;;30.38;50.15;99293.38;253695;1100;116073;-71
2021/07/14 17:05:21;;;;;;;17.93;16.23;;;;;;;30.25;50.44;99278.34;253913;1104;116408;-70
2021/07/14 17:10:27;;;;;;;25.87;17.37;;;;;;;30.08;50.28;99262.44;257040;1104;116438;-69
2021/07/14 17:15:30;;;;;;;18.73;16.27;;;;;;;29.93;51.96;99255.98;255576;1104;115037;-69
2021/07/14 17:20:33;;;;;;;22.07;17.07;;;;;;;29.77;52.76;99256.17;257391;1104;116082;-71
2021/07/14 17:25:36;;;;;;;21.87;19.87;;;;;;;29.62;53.17;99265.42;256610;1103;114940;-69
2021/07/14 17:30:39;;;;;;;22.07;18.20;;;;;;;29.43;54.23;99251.81;256294;1098;117159;-69
2021/07/14 17:35:42;;;;;;;21.63;19.53;;;;;;;29.27;54.93;99229.22;255380;1104;116697;-67
2021/07/14 17:40:45;;;;;;;25.50;19.57;;;;;;;29.11;55.46;99221.15;254271;1104;119176;-70
2021/07/14 17:45:49;;;;;;;23.45;21.20;;;;;;;28.95;55.77;99246.02;254070;1099;116824;-68
2021/07/14 17:50:53;;;;;;;24.27;21.20;;;;;;;28.84;56.32;99245.06;254360;1104;116534;-68
2021/07/14 17:55:56;;;;;;;23.67;21.20;;;;;;;28.72;56.89;99239.77;255041;1104;116616;-68
2021/07/14 18:00:59;;;;;;;26.03;23.20;;;;;;;28.58;57.07;99236.78;254509;1104;117033;-68
2021/07/14 18:06:02;;;;;;;23.73;21.40;;;;;;;28.43;58.22;99255.72;254905;1104;115368;-68
2021/07/14 18:11:08;;;;;;;23.97;21.63;;;;;;;28.28;58.86;99264.86;254490;1104;115126;-68
2021/07/14 18:16:15;;;;;;;24.23;21.97;;;;;;;28.18;59.20;99284.59;254481;1104;115929;-68
2021/07/14 18:21:19;;;;;;;23.13;20.80;;;;;;;28.08;59.61;99294.22;254242;1100;115808;-68
2021/07/14 18:26:22;;;;;;;24.30;12.68;;;;;;;27.75;58.39;99385.11;254326;1104;115446;-67
2021/07/14 18:31:26;;;;;;;21.73;9.40;;;;;;;26.55;57.01;99382.08;254436;1104;115341;-68
2021/07/14 18:36:29;;;;;;;16.50;7.20;;;;;;;25.01;57.94;99352.09;255016;1104;115840;-67
2021/07/14 19:23:33;;;;;;;24.90;7.30;;;;;;;21.87;66.13;99255.94;262663;1102;101541;-68
2021/07/14 19:28:37;;;;;;;24.62;7.58;;;;;;;21.73;66.02;99301.41;254531;1104;114858;-69
2021/07/14 19:33:41;;;;;;;23.60;6.85;;;;;;;21.65;66.30;99300.31;254175;1100;115172;-68
2021/07/14 19:38:45;;;;;;;24.53;6.13;;;;;;;21.58;66.77;99419.31;254658;1104;115282;-67
2021/07/14 19:43:48;;;;;;;27.80;6.77;;;;;;;21.44;67.15;99565.05;254204;1104;115176;-68
2021/07/14 19:48:52;;;;;;;7.53;5.88;;;;;;;21.44;68.39;99530.60;254489;1104;115474;-69
2021/07/14 19:53:58;;;;;;;5.53;2.33;;;;;;;21.27;67.09;99560.34;254087;1099;114902;-67
2021/07/14 19:59:07;;;;;;;8.07;2.47;;;;;;;21.05;66.88;99628.88;254794;1104;114752;-67
2021/07/14 20:06:47;;;;;;;4.80;2.00;;;;;;;20.80;67.41;99556.29;260060;1093;103013;-66
2021/07/14 20:11:51;;;;;;;5.33;2.13;;;;;;;20.68;68.01;99543.30;254319;1104;116389;-66
2021/07/14 20:16:54;;;;;;;9.50;2.10;;;;;;;20.47;68.24;99496.94;255652;1104;114878;-68
2021/07/14 20:21:58;;;;;;;4.68;2.63;;;;;;;20.53;69.16;99459.69;254371;1104;115364;-67
2021/07/14 20:27:03;;;;;;;5.53;2.23;;;;;;;20.65;69.06;99467.28;254705;1104;115445;-69
2021/07/14 20:32:09;;;;;;;6.23;2.68;;;;;;;20.60;69.10;99429.48;254243;1104;114098;-67
2021/07/14 20:37:12;;;;;;;7.25;2.53;;;;;;;20.68;69.44;99405.17;255550;1104;115512;-67
2021/07/14 20:42:19;;;;;;;8.90;2.33;;;;;;;20.78;69.57;99371.63;254178;1098;114796;-67
2021/07/14 20:47:23;;;;;;;2.10;2.00;;;;;;;20.81;69.87;99349.30;254586;1104;115347;-68
2021/07/14 20:52:26;;;;;;;7.10;2.40;;;;;;;20.75;69.88;99355.98;255614;1104;115006;-68
2021/07/14 20:57:30;;;;;;;6.03;3.17;;;;;;;20.75;69.72;99348.66;254173;1104;115109;-68
2021/07/14 21:02:33;;;;;;;3.98;3.18;;;;;;;20.78;70.10;99320.16;256591;1104;114911;-68
2021/07/14 21:07:37;;;;;;;6.30;2.88;;;;;;;20.80;70.18;99355.83;257188;1104;116013;-67
2021/07/14 21:12:41;;;;;;;5.20;2.93;;;;;;;20.88;70.41;99365.11;257158;1104;115659;-68
2021/07/14 21:17:45;;;;;;;7.97;2.97;;;;;;;20.90;70.43;99407.05;257245;1104;115068;-69
2021/07/14 21:25:21;;;;;;;3.73;2.90;;;;;;;20.87;70.57;99380.57;261932;1094;102355;-67
2021/07/14 21:30:25;;;;;;;6.50;2.63;;;;;;;20.82;70.58;99364.44;256485;1104;116043;-68
2021/07/14 21:35:29;;;;;;;3.70;2.90;;;;;;;20.76;70.61;99352.97;257366;1104;114428;-68
2021/07/14 21:43:19;;;;;;;3.08;2.65;;;;;;;20.81;70.82;99338.47;262875;1093;104194;-65
2021/07/14 21:48:22;;;;;;;5.03;3.20;;;;;;;20.82;70.82;99334.64;255870;1096;114816;-66
2021/07/14 21:53:25;;;;;;;7.47;3.97;;;;;;;20.84;71.17;99333.22;256321;1104;114426;-67
2021/07/14 21:58:29;;;;;;;4.90;3.83;;;;;;;20.84;71.26;99316.97;255158;1101;115867;-66
2021/07/14 22:03:32;;;;;;;3.73;3.40;;;;;;;20.81;71.37;99343.88;256139;1101;116339;-67
2021/07/14 22:08:35;;;;;;;8.60;4.40;;;;;;;20.73;71.56;99358.20;254994;1096;115941;-68
2021/07/14 22:13:38;;;;;;;4.68;3.73;;;;;;;20.69;71.56;99452.81;255448;1101;115584;-67
2021/07/14 22:18:45;;;;;;;9.08;3.95;;;;;;;20.57;71.84;99484.25;255567;1102;115778;-66
2021/07/14 22:23:50;;;;;;;13.23;5.13;;;;;;;20.49;71.68;99559.69;254735;1104;117072;-67
2021/07/14 22:28:54;;;;;;;8.97;4.47;;;;;;;20.44;72.23;99557.12;254777;1097;114647;-68
2021/07/14 22:34:02;;;;;;;5.30;4.77;;;;;;;20.44;72.14;99578.77;255236;1101;115228;-64
2021/07/14 22:39:09;;;;;;;12.90;4.53;;;;;;;20.37;72.19;99588.38;255396;1101;116400;-68
2021/07/14 22:44:15;;;;;;;22.15;6.10;;;;;;;20.32;72.40;99570.33;254779;1101;116522;-66
2021/07/14 22:57:25;;;;;;;4.57;3.77;;;;;;;20.18;72.45;99385.50;259821;1092;103066;-65
2021/07/14 23:02:32;;;;;;;9.07;3.73;;;;;;;19.98;72.35;99346.19;257347;1104;115552;-66
2021/07/14 23:07:35;;;;;;;13.28;4.83;;;;;;;19.91;72.98;99342.30;257200;1103;116864;-66
2021/07/14 23:12:39;;;;;;;8.00;3.10;;;;;;;19.90;73.05;99360.44;256956;1103;117207;-66
2021/07/14 23:17:43;;;;;;;5.85;3.95;;;;;;;19.93;73.26;99427.46;254598;1102;115077;-66
2021/07/14 23:22:47;;;;;;;14.53;3.85;;;;;;;19.98;73.30;99421.14;255685;1096;115810;-66
2021/07/14 23:27:50;;;;;;;9.67;4.43;;;;;;;20.07;73.38;99424.73;255162;1097;114332;-66
2021/07/14 23:32:55;;;;;;;12.33;3.87;;;;;;;20.11;73.41;99431.95;257342;1104;118144;-65
2021/07/14 23:37:58;;;;;;;6.53;4.50;;;;;;;20.17;73.37;99429.94;256857;1103;115425;-65
2021/07/14 23:43:04;;;;;;;6.80;3.60;;;;;;;20.21;73.34;99408.45;256507;1104;115237;-66
2021/07/14 23:48:08;;;;;;;7.57;3.63;;;;;;;20.19;73.13;99408.75;255081;1104;114829;-65
2021/07/14 23:53:11;;;;;;;6.27;3.87;;;;;;;20.19;72.87;99403.34;257282;1104;114857;-66
2021/07/14 23:58:13;;;;;;;9.08;4.18;;;;;;;20.17;73.22;99413.69;255663;1104;115183;-65
